Historyczne dane pomiarowe

Dodano dane terminowe – wersja testowa.

Dane z okresu 1951-2019

Wersja bazy: 1.34 [2019-03-16, lista zmian], aktualizacja planowana na 2019-04-15

Dane meteo z obszaru Polski uzyskane na podstawie danych udostępnionych przez Instytut Meteorologii i Gospodarki Wodnej – Państwowy Instytut Badawczy.

 

Wybierz Datę:    

       

TemperaturaWilgotnośćWiatrCiśnienieOpadyŚniegCzas trwania zjawisk
 Stacja t tx tn tng RH VA  wxwx mslp ppp RRR   cm mm wxwxwxwxwxwxwx
1965-06-13 12.0 14.4 10.1- 93.3- 8.0 2.7---- 6.1------------
1965-06-14 14.1 20.3 10.1- 70.3- 2.7 4.7---- 0.0------------
1965-06-15 15.3 22.0 6.1- 64.5- 0.0 2.0---- 0.0------------
1965-06-16 17.1 22.8 5.6- 56.0- 0.3 2.0---- 0.0------------
1965-06-17 20.3 25.9 12.3- 51.8- 3.0 5.3---- 0.0------------
1965-06-18 14.8 19.2 12.6- 72.3- 5.3 4.7---- 3.2------------
1965-06-19 14.2 21.2 13.0- 87.8- 6.7 3.7---- 7.3------------
1965-06-20 13.3 19.2 10.4- 77.0- 5.3 4.0---- 0.0------------
1965-06-21 16.5 20.7 7.8- 73.0- 5.0 2.7---- 0.0------------
1965-06-22 22.0 26.6 6.2- 61.0- 3.3 3.7---- 0.0------------
1965-06-23 18.0 23.5 14.6- 80.3- 4.0 4.0---- 4.9------------
1965-06-24 17.9 23.9 8.3- 77.0- 6.0 2.7---- 0.0------------
1965-06-25 17.2 25.0 11.4- 80.3- 4.0 2.3---- 0.0------------
1965-06-26 21.5 29.0 10.4- 65.3- 2.7 5.3---- 0.0------------
1965-06-27 17.6 22.6 14.0- 69.0- 5.3 2.0---- 0.0------------
1965-06-28 14.3 19.8 10.1- 66.3- 1.7 2.3---- 2.0------------
1965-06-29 13.7 18.8 6.1- 77.3- 4.0 4.7---- 0.1------------
1965-06-30 15.5 22.5 4.9- 71.3- 1.3 3.0---- 4.3------------
1965-07-01 12.4 18.2 9.7- 84.0- 4.0 2.3---- 0.0------------
1965-07-02 13.6 18.4 2.5- 63.8- 4.3 4.7---- 0.0------------
1965-07-03 10.6 15.3 7.9- 78.8- 5.3 3.3---- 0.0------------
1965-07-04 11.5 17.4 5.9- 72.0- 2.0 6.0---- 0.0------------
1965-07-05 12.0 18.1 1.6- 78.3- 4.0 1.0---- 0.0------------
1965-07-06 10.3 17.5 2.1- 87.0- 3.0 4.3---- 2.1------------
1965-07-07 13.0 16.2 6.8- 84.5- 5.7 3.7---- 0.0------------
1965-07-08 16.2 21.7 7.5- 85.8- 5.7 1.7---- 11.6------------
1965-07-09 12.2 16.4 10.4- 73.0- 3.3 7.0---- 0.2------------
1965-07-10 11.1 16.9 7.8- 77.0- 2.7 4.7---- 0.0------------
1965-07-11 11.2 17.9 3.9- 83.5- 2.7 2.0---- 0.0------------
1965-07-12 17.1 22.6 4.2- 76.3- 6.7 3.7---- 5.5------------
189.3 ms

 

Źródłem pochodzenia danych jest Instytut Meteorologii i Gospodarki Wodnej – Państwowy Instytut Badawczy. Dane Instytutu Meteorologii i Gospodarki Wodnej – Państwowego Instytutu Badawczego zostały przetworzone.

Dane źródłowe można odnaleźć na stronie https://dane.imgw.pl